createdAt,value
2022-09-28T00:01:14.853Z,95.84
2022-09-28T00:03:42.069Z,95.61
2022-09-28T00:06:11.800Z,95.49
2022-09-28T00:08:40.362Z,95.64
2022-09-28T00:11:12.502Z,95.45
2022-09-28T00:13:40.550Z,95.98
2022-09-28T00:16:11.335Z,95.52
2022-09-28T00:18:38.603Z,95.74
2022-09-28T00:21:09.081Z,96.13
2022-09-28T00:23:55.672Z,95.74
2022-09-28T00:26:23.322Z,95.68
2022-09-28T00:28:59.405Z,95.64
2022-09-28T00:31:32.889Z,95.22
2022-09-28T00:34:05.080Z,95.55
2022-09-28T00:36:33.899Z,95.52
2022-09-28T00:39:06.208Z,95.35
2022-09-28T00:41:34.536Z,95.29
2022-09-28T00:44:26.689Z,95.52
2022-09-28T00:47:01.283Z,95.29
2022-09-28T00:49:57.439Z,95.43
2022-09-28T00:52:33.999Z,95.56
2022-09-28T00:55:06.849Z,95.42
2022-09-28T00:57:34.899Z,95.67
2022-09-28T01:00:03.398Z,95.51
2022-09-28T01:02:31.685Z,95.31
2022-09-28T01:05:00.805Z,95.15
2022-09-28T01:07:28.053Z,95.27
2022-09-28T01:09:56.467Z,95.31
2022-09-28T01:12:23.563Z,95.44
2022-09-28T01:14:52.159Z,95.68
2022-09-28T01:17:54.690Z,95.17
2022-09-28T01:20:47.597Z,95.62
2022-09-28T01:23:53.599Z,95.08
2022-09-28T01:26:32.480Z,95.54
2022-09-28T01:29:37.052Z,95.71
2022-09-28T01:32:16.366Z,95.94
2022-09-28T01:35:09.080Z,95.60
2022-09-28T01:37:52.972Z,95.50
2022-09-28T01:40:23.177Z,95.49
2022-09-28T01:42:56.603Z,95.32
2022-09-28T01:45:29.331Z,95.92
2022-09-28T01:48:02.720Z,95.35
2022-09-28T01:50:34.489Z,95.52
2022-09-28T01:53:10.134Z,95.08
2022-09-28T01:55:50.581Z,94.74
2022-09-28T01:58:28.480Z,95.02
2022-09-28T02:01:03.243Z,94.92
2022-09-28T02:03:41.054Z,94.62
2022-09-28T02:06:22.679Z,94.37
2022-09-28T02:08:57.652Z,94.28
2022-09-28T02:11:37.531Z,93.94
2022-09-28T02:14:09.317Z,93.85
2022-09-28T02:16:45.326Z,93.34
2022-09-28T02:19:16.591Z,93.74
2022-09-28T02:21:54.169Z,93.53
2022-09-28T02:24:33.560Z,93.12
2022-09-28T02:27:08.733Z,93.22
2022-09-28T02:29:35.880Z,93.28
2022-09-28T02:32:03.289Z,93.16
2022-09-28T02:34:30.444Z,93.23
2022-09-28T02:36:58.262Z,92.36
2022-09-28T02:39:25.999Z,92.31
2022-09-28T02:42:11.289Z,92.02
2022-09-28T02:44:57.988Z,91.31
2022-09-28T02:47:56.752Z,91.01
2022-09-28T02:50:38.364Z,90.85
2022-09-28T02:53:15.254Z,90.84
2022-09-28T02:56:06.772Z,90.46
2022-09-28T02:58:48.164Z,91.25
2022-09-28T03:01:24.410Z,91.27
2022-09-28T03:04:13.754Z,91.14
2022-09-28T03:06:48.853Z,91.35
2022-09-28T03:09:26.089Z,91.57
2022-09-28T03:12:01.261Z,91.42
2022-09-28T03:14:28.439Z,91.06
2022-09-28T03:16:57.689Z,91.35
2022-09-28T03:19:30.720Z,91.18
2022-09-28T03:22:00.538Z,91.35
2022-09-28T03:24:27.773Z,91.02
2022-09-28T03:26:55.042Z,91.45
2022-09-28T03:29:23.023Z,91.42
2022-09-28T03:31:57.086Z,91.18
2022-09-28T03:34:24.238Z,91.14
2022-09-28T03:36:51.922Z,90.80
2022-09-28T03:39:19.283Z,90.77
2022-09-28T03:41:46.448Z,90.64
2022-09-28T03:44:13.937Z,90.53
2022-09-28T03:46:41.250Z,90.08
2022-09-28T03:49:10.805Z,90.16
2022-09-28T03:51:37.999Z,90.13
2022-09-28T03:54:05.571Z,90.62
2022-09-28T03:56:33.280Z,90.43
2022-09-28T03:59:02.722Z,90.26
2022-09-28T04:01:29.915Z,90.57
2022-09-28T04:03:58.119Z,90.36
2022-09-28T04:06:25.788Z,90.67
2022-09-28T04:08:53.359Z,90.41
2022-09-28T04:11:20.491Z,90.63
2022-09-28T04:13:51.037Z,90.20
2022-09-28T04:16:19.195Z,90.43
2022-09-28T04:18:59.359Z,90.64
2022-09-28T04:21:26.481Z,90.55
2022-09-28T04:24:14.759Z,90.66
2022-09-28T04:26:41.937Z,90.77
2022-09-28T04:29:17.469Z,90.62
2022-09-28T04:31:56.393Z,90.88
2022-09-28T04:34:36.494Z,90.46
2022-09-28T04:37:06.171Z,91.01
2022-09-28T04:39:33.427Z,90.45
2022-09-28T04:42:01.450Z,90.51
2022-09-28T04:44:29.039Z,90.63
2022-09-28T04:47:04.332Z,90.69
2022-09-28T04:49:32.284Z,90.82
2022-09-28T04:52:15.806Z,90.24
2022-09-28T04:54:45.259Z,90.33
2022-09-28T04:57:12.369Z,90.45
2022-09-28T04:59:39.484Z,90.24
2022-09-28T05:02:06.742Z,89.82
2022-09-28T05:04:52.330Z,89.63
2022-09-28T05:07:37.454Z,89.61
2022-09-28T05:10:07.053Z,89.47
2022-09-28T05:12:34.572Z,89.61
2022-09-28T05:15:01.840Z,89.74
2022-09-28T05:17:29.122Z,89.62
2022-09-28T05:20:06.843Z,89.89
2022-09-28T05:22:34.494Z,89.83
2022-09-28T05:25:03.083Z,89.64
2022-09-28T05:27:36.528Z,90.02
2022-09-28T05:30:08.762Z,89.94
2022-09-28T05:32:58.922Z,90.20
2022-09-28T05:35:30.044Z,90.09
2022-09-28T05:38:02.561Z,90.05
2022-09-28T05:40:29.912Z,90.15
2022-09-28T05:43:02.226Z,90.04
2022-09-28T05:45:30.214Z,90.10
2022-09-28T05:47:57.570Z,89.80
2022-09-28T05:50:25.244Z,89.73
2022-09-28T05:53:08.447Z,89.58
2022-09-28T05:55:37.918Z,89.89
2022-09-28T05:58:07.429Z,89.81
2022-09-28T06:00:36.160Z,90.20
2022-09-28T06:03:08.982Z,89.73
2022-09-28T06:05:39.582Z,89.79
2022-09-28T06:08:08.700Z,90.08
2022-09-28T06:10:36.164Z,89.84
2022-09-28T06:13:03.402Z,89.73
2022-09-28T06:15:32.599Z,89.20
2022-09-28T06:18:10.878Z,89.26
2022-09-28T06:20:43.484Z,89.12
2022-09-28T06:23:18.031Z,89.18
2022-09-28T06:25:45.327Z,88.92
2022-09-28T06:28:14.559Z,88.58
2022-09-28T06:30:44.286Z,88.61
2022-09-28T06:33:16.527Z,88.48
2022-09-28T06:35:43.725Z,88.73
2022-09-28T06:38:11.252Z,88.82
2022-09-28T06:40:38.811Z,88.68
2022-09-28T06:43:10.813Z,88.47
2022-09-28T06:45:56.688Z,88.37
2022-09-28T06:48:33.741Z,87.90
2022-09-28T06:51:02.040Z,87.77
2022-09-28T06:53:54.083Z,87.59
2022-09-28T06:56:59.511Z,87.58
2022-09-28T06:59:26.759Z,87.08
2022-09-28T07:01:54.463Z,86.96
2022-09-28T07:04:45.722Z,87.01
2022-09-28T07:07:33.314Z,86.57
2022-09-28T07:10:07.471Z,86.38
2022-09-28T07:12:43.840Z,86.23
2022-09-28T07:15:34.136Z,85.85
2022-09-28T07:18:04.072Z,86.13
2022-09-28T07:20:42.692Z,86.57
2022-09-28T07:23:19.388Z,85.79
2022-09-28T07:26:22.756Z,85.40
2022-09-28T07:29:10.569Z,86.23
2022-09-28T07:31:42.368Z,85.97
2022-09-28T07:34:28.201Z,86.24
2022-09-28T07:37:11.209Z,85.78
2022-09-28T07:39:58.960Z,85.61
2022-09-28T07:42:30.252Z,85.06
2022-09-28T07:44:58.687Z,84.47
2022-09-28T07:47:34.597Z,84.53
2022-09-28T07:50:32.827Z,84.69
2022-09-28T07:53:06.399Z,84.85
2022-09-28T07:56:08.984Z,84.52
2022-09-28T07:58:49.883Z,84.21
2022-09-28T08:01:32.107Z,83.85
2022-09-28T08:04:00.524Z,83.70
2022-09-28T08:06:27.900Z,83.28
2022-09-28T08:08:56.471Z,83.43
2022-09-28T08:11:44.150Z,83.11
2022-09-28T08:14:23.360Z,83.40
2022-09-28T08:17:09.093Z,82.95
2022-09-28T08:20:04.631Z,83.15
2022-09-28T08:22:32.465Z,83.00
2022-09-28T08:25:02.081Z,82.65
2022-09-28T08:27:29.775Z,82.02
2022-09-28T08:29:57.084Z,82.50
2022-09-28T08:32:49.599Z,82.22
2022-09-28T08:35:35.306Z,81.89
2022-09-28T08:38:22.001Z,81.42
2022-09-28T08:41:08.138Z,80.21
2022-09-28T08:44:12.867Z,79.43
2022-09-28T08:47:33.059Z,78.43
2022-09-28T08:50:33.921Z,78.09
2022-09-28T08:53:43.348Z,78.05
2022-09-28T08:56:50.637Z,77.49
2022-09-28T08:59:23.078Z,77.19
2022-09-28T09:02:03.734Z,75.37
2022-09-28T09:04:34.240Z,75.86
2022-09-28T09:07:52.333Z,76.04
2022-09-28T09:10:38.693Z,76.06
2022-09-28T09:13:21.180Z,74.55
2022-09-28T09:16:24.426Z,73.05
2022-09-28T09:19:36.441Z,73.20
2022-09-28T09:22:48.104Z,73.54
2022-09-28T09:25:28.790Z,73.98
2022-09-28T09:28:09.330Z,74.59
2022-09-28T09:31:04.612Z,74.24
2022-09-28T09:33:40.287Z,73.34
2022-09-28T09:36:30.648Z,74.20
2022-09-28T09:39:28.842Z,74.05
2022-09-28T09:42:45.068Z,74.66
2022-09-28T09:45:55.186Z,75.45
2022-09-28T09:48:44.885Z,74.37
2022-09-28T09:51:41.427Z,73.85
2022-09-28T09:54:57.681Z,74.83
2022-09-28T09:57:47.550Z,74.66
2022-09-28T10:00:34.250Z,74.12
2022-09-28T10:03:30.206Z,73.95
2022-09-28T10:06:32.171Z,73.93
2022-09-28T10:09:05.883Z,74.25
2022-09-28T10:11:52.292Z,74.34
2022-09-28T10:14:23.004Z,75.38
2022-09-28T10:17:02.778Z,74.47
2022-09-28T10:19:55.120Z,73.00
2022-09-28T10:22:44.330Z,71.98
2022-09-28T10:25:16.199Z,71.34
2022-09-28T10:27:46.518Z,70.28
2022-09-28T10:30:25.563Z,69.67
2022-09-28T10:32:59.304Z,69.50
2022-09-28T10:35:42.010Z,69.14
2022-09-28T10:38:19.246Z,69.45
2022-09-28T10:40:59.784Z,69.30
2022-09-28T10:44:11.229Z,68.14
2022-09-28T10:46:57.199Z,67.90
2022-09-28T10:49:37.697Z,67.38
2022-09-28T10:52:08.939Z,66.85
2022-09-28T10:54:53.955Z,67.16
2022-09-28T10:57:29.811Z,67.30
2022-09-28T11:00:07.570Z,68.13
2022-09-28T11:02:41.159Z,68.90
2022-09-28T11:05:23.203Z,69.16
2022-09-28T11:07:56.238Z,69.32
2022-09-28T11:10:31.641Z,69.70
2022-09-28T11:13:10.866Z,70.05
2022-09-28T11:15:44.550Z,70.00
2022-09-28T11:18:31.817Z,69.55
2022-09-28T11:21:15.473Z,69.19
2022-09-28T11:24:06.750Z,68.11
2022-09-28T11:26:44.249Z,67.51
2022-09-28T11:29:37.528Z,66.98
2022-09-28T11:32:22.201Z,67.73
2022-09-28T11:35:51.423Z,67.78
2022-09-28T11:38:38.092Z,66.39
2022-09-28T11:41:34.984Z,67.14
2022-09-28T11:44:37.672Z,67.40
2022-09-28T11:47:23.568Z,68.29
2022-09-28T11:50:33.652Z,67.51
2022-09-28T11:53:28.330Z,67.50
2022-09-28T11:56:17.968Z,67.09
2022-09-28T11:58:50.125Z,67.43
2022-09-28T12:01:40.720Z,68.00
2022-09-28T12:04:28.850Z,67.74
2022-09-28T12:07:14.639Z,67.76
2022-09-28T12:09:50.813Z,67.84
2022-09-28T12:12:25.687Z,68.34
2022-09-28T12:14:59.560Z,67.88
2022-09-28T12:17:41.123Z,69.30
2022-09-28T12:20:28.839Z,69.17
2022-09-28T12:23:01.853Z,69.09
2022-09-28T12:25:37.218Z,68.84
2022-09-28T12:28:13.571Z,69.33
2022-09-28T12:30:44.239Z,69.67
2022-09-28T12:33:15.619Z,69.35
2022-09-28T12:36:07.381Z,69.45
2022-09-28T12:38:34.654Z,68.94
2022-09-28T12:41:43.824Z,68.04
2022-09-28T12:44:13.927Z,68.86
2022-09-28T12:46:54.550Z,68.93
2022-09-28T12:50:36.279Z,69.38
2022-09-28T12:52:51.121Z,69.01
2022-09-28T12:55:30.601Z,68.64
2022-09-28T12:58:22.213Z,69.98
2022-09-28T13:01:14.032Z,69.70
2022-09-28T13:04:20.681Z,70.21
2022-09-28T13:07:15.093Z,71.11
2022-09-28T13:09:58.719Z,70.53
2022-09-28T13:12:26.072Z,70.96
2022-09-28T13:15:15.810Z,71.20
2022-09-28T13:17:57.217Z,70.04
2022-09-28T13:20:49.805Z,70.89
2022-09-28T13:23:29.043Z,70.26
2022-09-28T13:26:07.576Z,70.72
2022-09-28T13:28:37.633Z,70.40
2022-09-28T13:31:05.934Z,69.90
2022-09-28T13:33:37.411Z,70.42
2022-09-28T13:36:28.784Z,69.86
2022-09-28T13:38:59.763Z,70.05
2022-09-28T13:41:32.440Z,70.78
2022-09-28T13:44:12.961Z,69.91
2022-09-28T13:46:46.251Z,69.97
2022-09-28T13:49:49.499Z,70.85
2022-09-28T13:52:35.383Z,70.95
2022-09-28T13:55:27.748Z,71.29
2022-09-28T13:58:14.800Z,70.85
2022-09-28T14:00:58.726Z,71.25
2022-09-28T14:03:44.452Z,71.54
2022-09-28T14:06:29.479Z,71.07
2022-09-28T14:09:16.274Z,71.34
2022-09-28T14:11:56.462Z,70.84
2022-09-28T14:14:44.959Z,72.17
2022-09-28T14:17:24.332Z,72.87
2022-09-28T14:19:57.864Z,72.50
2022-09-28T14:22:50.444Z,72.17
2022-09-28T14:25:45.061Z,72.74
2022-09-28T14:28:44.606Z,72.87
2022-09-28T14:31:25.421Z,73.29
2022-09-28T14:34:03.855Z,73.04
2022-09-28T14:37:15.752Z,72.99
2022-09-28T14:40:05.609Z,73.14
2022-09-28T14:42:33.013Z,75.09
2022-09-28T14:45:06.361Z,76.41
2022-09-28T14:47:37.038Z,77.20
2022-09-28T14:50:29.097Z,77.79
2022-09-28T14:53:04.632Z,78.50
2022-09-28T14:55:39.129Z,78.13
2022-09-28T14:58:16.583Z,79.16
2022-09-28T15:00:45.063Z,79.55
2022-09-28T15:03:14.595Z,80.32
2022-09-28T15:05:49.887Z,81.21
2022-09-28T15:08:21.180Z,81.48
2022-09-28T15:10:50.352Z,81.86
2022-09-28T15:13:28.852Z,82.51
2022-09-28T15:16:09.048Z,82.35
2022-09-28T15:19:05.599Z,82.32
2022-09-28T15:21:38.842Z,82.16
2022-09-28T15:25:10.799Z,82.58
2022-09-28T15:27:39.407Z,82.77
2022-09-28T15:30:18.765Z,83.42
2022-09-28T15:32:45.999Z,83.59
2022-09-28T15:35:23.156Z,84.10
2022-09-28T15:37:52.315Z,84.23
2022-09-28T15:40:33.744Z,84.93
2022-09-28T15:43:02.849Z,85.41
2022-09-28T15:45:38.401Z,85.94
2022-09-28T15:48:19.339Z,85.57
2022-09-28T15:51:05.444Z,86.43
2022-09-28T15:53:33.760Z,86.65
2022-09-28T15:56:09.765Z,86.33
2022-09-28T15:58:38.562Z,86.55
2022-09-28T16:01:26.272Z,86.75
2022-09-28T16:03:53.540Z,87.08
2022-09-28T16:06:21.646Z,86.68
2022-09-28T16:08:51.599Z,86.36
2022-09-28T16:11:30.364Z,86.12
2022-09-28T16:14:06.522Z,86.06
2022-09-28T16:16:47.973Z,85.97
2022-09-28T16:19:28.916Z,85.44
2022-09-28T16:21:58.275Z,85.47
2022-09-28T16:24:30.866Z,85.55
2022-09-28T16:27:07.173Z,86.07
2022-09-28T16:29:40.605Z,85.87
2022-09-28T16:32:25.825Z,86.21
2022-09-28T16:35:07.882Z,86.17
2022-09-28T16:37:35.050Z,85.89
2022-09-28T16:40:02.414Z,86.14
2022-09-28T16:42:29.602Z,86.12
2022-09-28T16:44:57.001Z,85.82
2022-09-28T16:47:24.406Z,85.94
2022-09-28T16:49:52.042Z,85.52
2022-09-28T16:52:39.243Z,85.38
2022-09-28T16:58:05.211Z,86.19
2022-09-28T17:00:32.721Z,86.10
2022-09-28T17:03:00.025Z,85.60
2022-09-28T17:05:27.557Z,86.21
2022-09-28T17:08:02.171Z,86.63
2022-09-28T17:10:33.705Z,86.43
2022-09-28T17:13:08.863Z,86.46
2022-09-28T17:15:36.208Z,86.74
2022-09-28T17:18:03.369Z,86.30
2022-09-28T17:20:32.361Z,86.29
2022-09-28T17:23:00.290Z,86.37
2022-09-28T17:25:27.959Z,86.90
2022-09-28T17:27:57.686Z,87.22
2022-09-28T17:30:25.820Z,87.41
2022-09-28T17:32:53.296Z,87.78
2022-09-28T17:35:25.572Z,87.52
2022-09-28T17:37:53.442Z,87.81
2022-09-28T17:40:26.169Z,87.83
2022-09-28T17:42:56.284Z,87.95
2022-09-28T17:45:28.918Z,88.07
2022-09-28T17:47:56.279Z,87.88
2022-09-28T17:50:29.814Z,87.76
2022-09-28T17:52:58.351Z,87.64
2022-09-28T17:55:29.008Z,87.76
2022-09-28T17:57:56.782Z,87.78
2022-09-28T18:00:27.686Z,88.15
2022-09-28T18:02:56.272Z,88.01
2022-09-28T18:05:25.100Z,88.32
2022-09-28T18:07:52.979Z,87.87
2022-09-28T18:10:23.029Z,88.46
2022-09-28T18:12:51.210Z,88.30
2022-09-28T18:15:19.830Z,88.53
2022-09-28T18:17:47.523Z,88.25
2022-09-28T18:20:15.175Z,87.94
2022-09-28T18:22:42.698Z,87.79
2022-09-28T18:25:11.289Z,88.21
2022-09-28T18:27:38.667Z,87.98
2022-09-28T18:30:07.220Z,88.13
2022-09-28T18:32:37.131Z,88.09
2022-09-28T18:35:05.961Z,88.05
2022-09-28T18:37:37.648Z,88.33
2022-09-28T18:40:05.591Z,88.24
2022-09-28T18:42:33.762Z,88.51
2022-09-28T18:45:00.921Z,88.33
2022-09-28T18:47:28.159Z,88.33
2022-09-28T18:49:55.805Z,88.61
2022-09-28T18:52:23.007Z,88.17
2022-09-28T18:54:50.970Z,88.78
2022-09-28T18:57:18.854Z,88.47
2022-09-28T18:59:46.268Z,89.05
2022-09-28T19:02:13.754Z,88.71
2022-09-28T19:04:41.710Z,88.82
2022-09-28T19:07:09.365Z,88.50
2022-09-28T19:09:36.544Z,88.24
2022-09-28T19:12:04.041Z,88.26
2022-09-28T19:14:31.249Z,88.25
2022-09-28T19:16:58.442Z,88.70
2022-09-28T19:19:25.769Z,88.28
2022-09-28T19:21:53.015Z,88.47
2022-09-28T19:24:21.313Z,87.95
2022-09-28T19:26:49.096Z,88.37
2022-09-28T19:29:16.749Z,88.09
2022-09-28T19:31:44.021Z,88.03
2022-09-28T19:34:14.131Z,88.42
2022-09-28T19:36:42.568Z,87.87
2022-09-28T19:39:14.662Z,88.09
2022-09-28T19:41:45.795Z,87.86
2022-09-28T19:44:25.220Z,87.84
2022-09-28T19:46:55.493Z,87.40
2022-09-28T19:49:24.331Z,87.59
2022-09-28T19:52:13.951Z,87.55
2022-09-28T19:54:57.042Z,87.28
2022-09-28T19:57:27.998Z,87.23
2022-09-28T20:00:00.861Z,87.03
2022-09-28T20:02:34.023Z,87.47
2022-09-28T20:05:01.529Z,87.88
2022-09-28T20:07:33.045Z,87.96
2022-09-28T20:10:00.523Z,88.43
2022-09-28T20:12:27.645Z,89.04
2022-09-28T20:14:54.821Z,88.98
2022-09-28T20:17:22.042Z,88.76
2022-09-28T20:19:52.012Z,89.39
2022-09-28T20:22:20.115Z,89.41
2022-09-28T20:24:47.452Z,89.21
2022-09-28T20:27:14.610Z,88.97
2022-09-28T20:29:43.404Z,89.33
2022-09-28T20:32:11.901Z,89.37
2022-09-28T20:34:39.155Z,89.32
2022-09-28T20:37:06.350Z,89.62
2022-09-28T20:39:33.481Z,89.68
2022-09-28T20:42:00.709Z,89.55
2022-09-28T20:44:27.861Z,89.39
2022-09-28T20:46:56.884Z,90.14
2022-09-28T20:49:24.108Z,89.85
2022-09-28T20:51:51.278Z,89.56
2022-09-28T20:54:18.684Z,89.63
2022-09-28T20:56:48.377Z,89.66
2022-09-28T20:59:15.624Z,89.64
2022-09-28T21:01:43.269Z,89.72
2022-09-28T21:04:10.924Z,89.12
2022-09-28T21:06:40.961Z,88.90
2022-09-28T21:09:09.827Z,89.01
2022-09-28T21:11:37.934Z,88.95
2022-09-28T21:14:07.282Z,88.85
2022-09-28T21:16:35.883Z,89.31
2022-09-28T21:19:04.251Z,89.13
2022-09-28T21:21:31.399Z,88.94
2022-09-28T21:23:59.030Z,88.91
2022-09-28T21:26:28.960Z,89.32
2022-09-28T21:28:58.445Z,89.18
2022-09-28T21:31:29.297Z,88.51
2022-09-28T21:33:59.821Z,88.85
2022-09-28T21:36:27.161Z,88.47
2022-09-28T21:38:56.514Z,88.46
2022-09-28T21:41:24.979Z,88.44
2022-09-28T21:43:52.621Z,88.33
2022-09-28T21:46:20.158Z,88.59
2022-09-28T21:48:52.611Z,88.57
2022-09-28T21:51:20.590Z,88.07
2022-09-28T21:53:49.420Z,88.54
2022-09-28T21:56:16.835Z,88.28
2022-09-28T21:58:43.959Z,88.52
2022-09-28T22:01:14.951Z,88.28
2022-09-28T22:03:44.318Z,88.44
2022-09-28T22:06:11.950Z,88.39
2022-09-28T22:08:39.890Z,88.55
2022-09-28T22:11:08.537Z,88.52
2022-09-28T22:13:44.631Z,88.73
2022-09-28T22:16:13.503Z,88.84
2022-09-28T22:18:41.150Z,88.75
2022-09-28T22:21:15.793Z,88.77
2022-09-28T22:23:42.967Z,88.80
2022-09-28T22:26:20.277Z,88.50
2022-09-28T22:28:56.138Z,88.22
2022-09-28T22:31:26.690Z,88.40
2022-09-28T22:33:54.691Z,88.14
2022-09-28T22:36:21.786Z,88.13
2022-09-28T22:38:49.397Z,88.62
2022-09-28T22:41:21.057Z,88.45
2022-09-28T22:43:50.064Z,88.46
2022-09-28T22:46:23.342Z,88.23
2022-09-28T22:48:53.410Z,88.77
2022-09-28T22:51:21.567Z,88.85
2022-09-28T22:53:48.977Z,88.43
2022-09-28T22:56:18.946Z,88.95
2022-09-28T22:58:47.255Z,88.91
2022-09-28T23:01:18.017Z,88.96
2022-09-28T23:03:45.388Z,88.73
2022-09-28T23:06:15.148Z,88.81
2022-09-28T23:08:43.148Z,88.85
2022-09-28T23:11:10.972Z,89.06
2022-09-28T23:13:38.621Z,88.93
2022-09-28T23:16:08.262Z,88.73
2022-09-28T23:18:37.778Z,88.96
2022-09-28T23:21:07.097Z,88.62
2022-09-28T23:23:34.792Z,89.16
2022-09-28T23:26:14.583Z,88.75
2022-09-28T23:28:41.746Z,89.31
2022-09-28T23:31:10.410Z,88.96
2022-09-28T23:33:37.858Z,89.69
2022-09-28T23:36:05.493Z,89.65
2022-09-28T23:38:32.984Z,88.87
2022-09-28T23:41:00.460Z,89.35
2022-09-28T23:43:27.926Z,89.14
2022-09-28T23:45:55.195Z,89.67
2022-09-28T23:48:22.413Z,89.63
2022-09-28T23:50:49.768Z,89.77
2022-09-28T23:53:16.907Z,89.84
2022-09-28T23:55:44.142Z,89.91
2022-09-28T23:58:12.363Z,90.08
